createdAt,value
2022-09-25T00:01:24.790Z,14.31
2022-09-25T00:03:52.837Z,14.30
2022-09-25T00:06:22.967Z,14.30
2022-09-25T00:08:51.674Z,14.28
2022-09-25T00:11:22.368Z,14.25
2022-09-25T00:13:50.409Z,14.22
2022-09-25T00:16:21.117Z,14.19
2022-09-25T00:19:07.702Z,14.18
2022-09-25T00:21:38.430Z,14.14
2022-09-25T00:24:08.676Z,14.11
2022-09-25T00:26:39.167Z,14.07
2022-09-25T00:29:10.834Z,14.07
2022-09-25T00:31:38.823Z,14.08
2022-09-25T00:34:08.506Z,14.11
2022-09-25T00:36:36.548Z,14.13
2022-09-25T00:39:05.234Z,14.12
2022-09-25T00:41:33.082Z,14.15
2022-09-25T00:44:02.760Z,14.18
2022-09-25T00:46:32.976Z,14.23
2022-09-25T00:49:04.177Z,14.24
2022-09-25T00:51:40.930Z,14.26
2022-09-25T00:54:16.632Z,14.27
2022-09-25T00:56:47.463Z,14.27
2022-09-25T00:59:18.028Z,14.27
2022-09-25T01:01:46.426Z,14.29
2022-09-25T01:04:15.511Z,14.32
2022-09-25T01:06:45.377Z,14.32
2022-09-25T01:09:13.192Z,14.28
2022-09-25T01:11:41.031Z,14.25
2022-09-25T01:14:11.392Z,14.27
2022-09-25T01:16:45.365Z,14.28
2022-09-25T01:19:25.137Z,14.27
2022-09-25T01:21:59.184Z,14.24
2022-09-25T01:24:45.582Z,14.18
2022-09-25T01:27:34.096Z,14.09
2022-09-25T01:30:10.107Z,14.05
2022-09-25T01:32:46.341Z,13.97
2022-09-25T01:35:19.482Z,13.88
2022-09-25T01:37:55.224Z,13.83
2022-09-25T01:40:27.759Z,13.77
2022-09-25T01:42:57.797Z,13.78
2022-09-25T01:45:33.114Z,13.77
2022-09-25T01:48:03.572Z,13.77
2022-09-25T01:50:36.601Z,13.76
2022-09-25T01:53:10.452Z,13.76
2022-09-25T01:55:45.222Z,13.77
2022-09-25T01:58:17.781Z,13.79
2022-09-25T02:00:53.236Z,13.80
2022-09-25T02:03:26.821Z,13.83
2022-09-25T02:05:58.269Z,13.84
2022-09-25T02:08:31.127Z,13.88
2022-09-25T02:11:02.369Z,13.87
2022-09-25T02:13:37.387Z,13.89
2022-09-25T02:16:12.152Z,13.88
2022-09-25T02:18:57.946Z,13.82
2022-09-25T02:21:34.323Z,13.78
2022-09-25T02:24:07.970Z,13.77
2022-09-25T02:26:37.711Z,13.74
2022-09-25T02:29:06.179Z,13.67
2022-09-25T02:31:40.536Z,13.63
2022-09-25T02:34:14.509Z,13.57
2022-09-25T02:36:44.967Z,13.56
2022-09-25T02:39:16.201Z,13.55
2022-09-25T02:42:02.517Z,13.52
2022-09-25T02:44:40.888Z,13.52
2022-09-25T02:47:23.370Z,13.56
2022-09-25T02:50:01.011Z,13.56
2022-09-25T02:52:35.566Z,13.53
2022-09-25T02:55:08.487Z,13.50
2022-09-25T02:57:44.610Z,13.48
2022-09-25T03:00:14.314Z,13.47
2022-09-25T03:02:51.327Z,13.47
2022-09-25T03:05:21.712Z,13.47
2022-09-25T03:08:07.144Z,13.45
2022-09-25T03:10:38.219Z,13.46
2022-09-25T03:13:17.415Z,13.55
2022-09-25T03:15:47.750Z,13.59
2022-09-25T03:18:17.245Z,13.65
2022-09-25T03:20:45.372Z,13.70
2022-09-25T03:23:14.047Z,13.70
2022-09-25T03:25:47.475Z,13.72
2022-09-25T03:28:17.456Z,13.74
2022-09-25T03:30:45.731Z,13.73
2022-09-25T03:33:14.484Z,13.71
2022-09-25T03:35:43.794Z,13.70
2022-09-25T03:38:12.561Z,13.69
2022-09-25T03:40:41.390Z,13.67
2022-09-25T03:45:35.701Z,13.73
2022-09-25T03:48:03.467Z,13.74
2022-09-25T03:50:31.243Z,13.75
2022-09-25T03:53:00.506Z,13.77
2022-09-25T03:55:28.349Z,13.74
2022-09-25T03:57:56.258Z,13.71
2022-09-25T04:00:24.434Z,13.68
2022-09-25T04:02:52.252Z,13.69
2022-09-25T04:05:20.211Z,13.71
2022-09-25T04:07:48.405Z,13.76
2022-09-25T04:10:18.043Z,13.80
2022-09-25T04:12:45.789Z,13.80
2022-09-25T04:15:13.547Z,13.79
2022-09-25T04:17:41.346Z,13.78
2022-09-25T04:20:09.833Z,13.75
2022-09-25T04:22:37.582Z,13.76
2022-09-25T04:25:05.943Z,13.76
2022-09-25T04:27:35.120Z,13.76
2022-09-25T04:30:02.942Z,13.78
2022-09-25T04:32:48.096Z,13.79
2022-09-25T04:35:16.107Z,13.80
2022-09-25T04:37:43.928Z,13.82
2022-09-25T04:40:12.330Z,13.84
2022-09-25T04:42:42.065Z,13.83
2022-09-25T04:45:10.599Z,13.83
2022-09-25T04:47:38.601Z,13.81
2022-09-25T04:50:07.197Z,13.79
2022-09-25T04:52:35.206Z,13.77
2022-09-25T04:55:04.278Z,13.78
2022-09-25T04:57:57.367Z,13.77
2022-09-25T05:00:21.947Z,13.72
2022-09-25T05:02:49.938Z,13.64
2022-09-25T05:05:19.740Z,13.55
2022-09-25T05:07:54.719Z,13.45
2022-09-25T05:10:23.078Z,13.35
2022-09-25T05:12:56.296Z,13.30
2022-09-25T05:15:26.368Z,13.28
2022-09-25T05:18:01.670Z,13.25
2022-09-25T05:20:29.961Z,13.19
2022-09-25T05:22:58.664Z,13.21
2022-09-25T05:25:28.182Z,13.25
2022-09-25T05:27:58.317Z,13.30
2022-09-25T05:30:29.969Z,13.34
2022-09-25T05:32:59.401Z,13.35
2022-09-25T05:35:29.779Z,13.38
2022-09-25T05:37:57.681Z,13.42
2022-09-25T05:40:26.131Z,13.44
2022-09-25T05:42:55.396Z,13.51
2022-09-25T05:45:24.560Z,13.57
2022-09-25T05:48:03.223Z,13.57
2022-09-25T05:50:32.490Z,13.58
2022-09-25T05:53:00.864Z,13.62
2022-09-25T05:55:42.327Z,13.66
2022-09-25T05:58:25.282Z,13.71
2022-09-25T06:00:58.770Z,13.73
2022-09-25T06:03:30.225Z,13.76
2022-09-25T06:05:58.529Z,13.79
2022-09-25T06:08:26.626Z,13.79
2022-09-25T06:11:08.750Z,13.80
2022-09-25T06:13:46.950Z,13.82
2022-09-25T06:16:19.408Z,13.87
2022-09-25T06:18:49.314Z,13.90
2022-09-25T06:21:16.886Z,13.91
2022-09-25T06:23:46.856Z,13.93
2022-09-25T06:26:16.023Z,13.93
2022-09-25T06:29:19.067Z,13.93
2022-09-25T06:31:48.318Z,13.95
2022-09-25T06:34:17.714Z,13.98
2022-09-25T06:36:45.540Z,14.00
2022-09-25T06:39:14.272Z,13.98
2022-09-25T06:41:42.526Z,13.98
2022-09-25T06:44:11.748Z,13.94
2022-09-25T06:46:39.727Z,13.93
2022-09-25T06:49:07.866Z,13.89
2022-09-25T06:51:39.503Z,13.88
2022-09-25T06:54:08.238Z,13.90
2022-09-25T06:56:39.551Z,13.95
2022-09-25T06:59:08.495Z,14.00
2022-09-25T07:01:37.231Z,14.05
2022-09-25T07:04:04.494Z,14.09
2022-09-25T07:06:35.357Z,14.15
2022-09-25T07:09:04.742Z,14.21
2022-09-25T07:11:32.377Z,14.21
2022-09-25T07:13:59.931Z,14.22
2022-09-25T07:16:29.638Z,14.25
2022-09-25T07:19:00.401Z,14.30
2022-09-25T07:21:30.924Z,14.35
2022-09-25T07:23:59.454Z,14.40
2022-09-25T07:26:43.104Z,14.45
2022-09-25T07:29:12.866Z,14.48
2022-09-25T07:31:40.992Z,14.53
2022-09-25T07:34:10.289Z,14.56
2022-09-25T07:36:40.120Z,14.58
2022-09-25T07:39:08.091Z,14.58
2022-09-25T07:41:39.486Z,14.59
2022-09-25T07:46:56.247Z,14.65
2022-09-25T07:49:24.323Z,14.69
2022-09-25T07:51:52.712Z,14.72
2022-09-25T07:54:21.473Z,14.75
2022-09-25T07:56:51.413Z,14.77
2022-09-25T07:59:19.313Z,14.78
2022-09-25T08:01:53.485Z,14.79
2022-09-25T08:04:22.591Z,14.78
2022-09-25T08:06:50.164Z,14.77
2022-09-25T08:09:17.703Z,14.76
2022-09-25T08:11:45.181Z,14.76
2022-09-25T08:14:15.710Z,14.78
2022-09-25T08:16:43.784Z,14.82
2022-09-25T08:19:11.562Z,14.89
2022-09-25T08:21:39.055Z,14.94
2022-09-25T08:24:06.631Z,15.03
2022-09-25T08:26:34.175Z,15.12
2022-09-25T08:29:01.749Z,15.20
2022-09-25T08:31:30.691Z,15.25
2022-09-25T08:34:09.747Z,15.34
2022-09-25T08:36:45.727Z,15.53
2022-09-25T08:39:13.219Z,15.72
2022-09-25T08:41:47.520Z,15.86
2022-09-25T08:44:22.366Z,15.93
2022-09-25T08:47:19.261Z,15.99
2022-09-25T08:49:53.548Z,15.99
2022-09-25T08:52:22.811Z,16.00
2022-09-25T08:54:51.743Z,16.06
2022-09-25T08:57:29.044Z,16.12
2022-09-25T09:00:03.049Z,16.10
2022-09-25T09:02:39.538Z,16.06
2022-09-25T09:05:17.186Z,16.09
2022-09-25T09:07:55.089Z,16.16
2022-09-25T09:10:31.523Z,16.21
2022-09-25T09:13:04.913Z,16.20
2022-09-25T09:15:44.140Z,16.19
2022-09-25T09:18:22.962Z,16.21
2022-09-25T09:20:53.943Z,16.25
2022-09-25T09:23:26.494Z,16.34
2022-09-25T09:26:02.831Z,16.43
2022-09-25T09:28:53.404Z,16.66
2022-09-25T09:31:28.595Z,16.79
2022-09-25T09:34:08.614Z,16.83
2022-09-25T09:36:53.921Z,16.76
2022-09-25T09:47:53.502Z,19.01
2022-09-25T09:56:06.421Z,20.89
2022-09-25T09:58:43.988Z,20.24
2022-09-25T10:01:29.451Z,19.76
2022-09-25T10:04:07.429Z,19.48
2022-09-25T10:06:44.797Z,19.16
2022-09-25T10:09:19.435Z,18.93
2022-09-25T10:12:00.074Z,18.90
2022-09-25T10:14:39.121Z,18.85
2022-09-25T10:17:11.388Z,18.79
2022-09-25T10:19:49.060Z,18.69
2022-09-25T10:22:20.662Z,18.54
2022-09-25T10:24:54.812Z,18.39
2022-09-25T10:27:32.068Z,18.22
2022-09-25T10:30:20.249Z,18.15
2022-09-25T10:32:58.151Z,18.14
2022-09-25T10:35:30.575Z,18.11
2022-09-25T10:38:01.446Z,18.10
2022-09-25T10:40:33.946Z,18.11
2022-09-25T10:43:26.710Z,18.08
2022-09-25T10:46:07.628Z,18.06
2022-09-25T10:48:54.331Z,18.01
2022-09-25T10:51:22.533Z,17.98
2022-09-25T10:53:51.348Z,17.96
2022-09-25T10:56:27.430Z,17.95
2022-09-25T10:58:57.934Z,17.91
2022-09-25T11:01:34.373Z,17.87
2022-09-25T11:04:04.631Z,17.87
2022-09-25T11:06:35.552Z,17.82
2022-09-25T11:09:15.271Z,17.75
2022-09-25T11:11:46.826Z,17.67
2022-09-25T11:14:22.383Z,17.63
2022-09-25T11:16:53.853Z,17.59
2022-09-25T11:19:28.804Z,17.55
2022-09-25T11:22:07.756Z,17.52
2022-09-25T11:24:44.280Z,17.49
2022-09-25T11:27:19.604Z,17.47
2022-09-25T11:29:58.398Z,17.46
2022-09-25T11:32:33.226Z,17.50
2022-09-25T11:35:20.070Z,17.57
2022-09-25T11:37:57.741Z,17.65
2022-09-25T11:40:53.165Z,17.73
2022-09-25T11:43:31.634Z,17.76
2022-09-25T11:46:02.913Z,17.76
2022-09-25T11:48:40.237Z,17.76
2022-09-25T11:51:18.386Z,17.75
2022-09-25T11:54:07.271Z,17.78
2022-09-25T11:56:53.127Z,17.86
2022-09-25T11:59:38.433Z,17.91
2022-09-25T12:02:20.770Z,17.91
2022-09-25T12:05:06.207Z,17.86
2022-09-25T12:07:52.629Z,17.79
2022-09-25T12:10:37.195Z,17.73
2022-09-25T12:13:16.517Z,17.73
2022-09-25T12:15:54.603Z,17.73
2022-09-25T12:18:38.282Z,17.64
2022-09-25T12:21:10.675Z,17.51
2022-09-25T12:23:41.049Z,17.42
2022-09-25T12:26:20.237Z,17.32
2022-09-25T12:29:01.098Z,17.19
2022-09-25T12:31:39.460Z,17.06
2022-09-25T12:34:18.062Z,16.99
2022-09-25T12:36:50.434Z,16.95
2022-09-25T12:39:31.083Z,16.97
2022-09-25T12:42:07.416Z,16.92
2022-09-25T12:44:46.552Z,16.84
2022-09-25T12:47:23.615Z,16.80
2022-09-25T12:49:57.781Z,16.74
2022-09-25T12:52:30.742Z,16.70
2022-09-25T12:55:03.294Z,16.68
2022-09-25T12:57:39.042Z,16.67
2022-09-25T13:00:13.649Z,16.68
2022-09-25T13:02:51.322Z,16.68
2022-09-25T13:05:22.380Z,16.69
2022-09-25T13:07:55.551Z,16.71
2022-09-25T13:10:28.113Z,16.69
2022-09-25T13:12:57.869Z,16.69
2022-09-25T13:15:29.644Z,16.68
2022-09-25T13:17:59.041Z,16.63
2022-09-25T13:20:48.393Z,16.59
2022-09-25T13:23:27.755Z,16.55
2022-09-25T13:26:00.917Z,16.54
2022-09-25T13:28:33.127Z,16.51
2022-09-25T13:31:08.964Z,16.51
2022-09-25T13:33:51.115Z,16.52
2022-09-25T13:36:38.371Z,16.54
2022-09-25T13:39:33.212Z,16.56
2022-09-25T13:42:04.304Z,16.57
2022-09-25T13:47:33.717Z,16.57
2022-09-25T13:50:19.327Z,16.56
2022-09-25T13:53:17.865Z,16.57
2022-09-25T13:56:13.404Z,16.59
2022-09-25T13:59:24.391Z,16.58
2022-09-25T14:01:57.675Z,16.58
2022-09-25T14:04:34.933Z,16.58
2022-09-25T14:07:19.961Z,16.59
2022-09-25T14:09:51.576Z,16.59
2022-09-25T14:12:30.335Z,16.58
2022-09-25T14:15:03.336Z,16.58
2022-09-25T14:17:34.751Z,16.56
2022-09-25T14:20:07.257Z,16.55
2022-09-25T14:22:42.444Z,16.59
2022-09-25T14:25:27.429Z,16.58
2022-09-25T14:27:56.969Z,16.58
2022-09-25T14:30:29.107Z,16.60
2022-09-25T14:33:18.349Z,16.59
2022-09-25T14:35:55.218Z,16.61
2022-09-25T14:38:53.941Z,16.61
2022-09-25T14:41:45.330Z,16.61
2022-09-25T14:44:33.558Z,16.62
2022-09-25T14:47:05.828Z,16.61
2022-09-25T14:49:37.853Z,16.61
2022-09-25T14:52:11.278Z,16.62
2022-09-25T14:54:47.143Z,16.62
2022-09-25T14:57:33.345Z,16.61
2022-09-25T15:00:06.128Z,16.60
2022-09-25T15:02:41.372Z,16.58
2022-09-25T15:05:34.638Z,16.57
2022-09-25T15:08:04.549Z,16.54
2022-09-25T15:10:35.064Z,16.52
2022-09-25T15:13:18.179Z,16.46
2022-09-25T15:16:04.370Z,16.41
2022-09-25T15:18:32.794Z,16.37
2022-09-25T15:21:02.194Z,16.36
2022-09-25T15:23:34.349Z,16.35
2022-09-25T15:26:03.417Z,16.34
2022-09-25T15:28:39.899Z,16.32
2022-09-25T15:31:14.189Z,16.33
2022-09-25T15:33:51.218Z,16.33
2022-09-25T15:36:31.605Z,16.34
2022-09-25T15:39:17.849Z,16.33
2022-09-25T15:41:50.574Z,16.33
2022-09-25T15:44:29.343Z,16.33
2022-09-25T15:47:05.679Z,16.31
2022-09-25T15:49:45.351Z,16.28
2022-09-25T15:52:25.459Z,16.26
2022-09-25T15:55:04.769Z,16.24
2022-09-25T15:57:38.894Z,16.22
2022-09-25T16:00:40.236Z,16.23
2022-09-25T16:03:37.787Z,16.21
2022-09-25T16:06:09.927Z,16.22
2022-09-25T16:08:42.896Z,16.22
2022-09-25T16:11:23.625Z,16.22
2022-09-25T16:13:54.378Z,16.22
2022-09-25T16:16:30.709Z,16.20
2022-09-25T16:19:38.537Z,16.17
2022-09-25T16:22:34.596Z,16.13
2022-09-25T16:25:11.568Z,16.09
2022-09-25T16:28:21.884Z,16.05
2022-09-25T16:30:51.445Z,16.02
2022-09-25T16:33:33.054Z,16.00
2022-09-25T16:36:25.450Z,15.96
2022-09-25T16:42:31.360Z,15.90
2022-09-25T16:45:04.080Z,15.83
2022-09-25T16:47:36.273Z,15.78
2022-09-25T16:50:04.972Z,15.76
2022-09-25T16:52:53.486Z,15.72
2022-09-25T16:55:29.806Z,15.69
2022-09-25T16:57:59.586Z,15.65
2022-09-25T17:00:30.121Z,15.64
2022-09-25T17:02:58.101Z,15.60
2022-09-25T17:05:33.710Z,15.58
2022-09-25T17:08:23.680Z,15.58
2022-09-25T17:10:53.337Z,15.54
2022-09-25T17:13:31.490Z,15.53
2022-09-25T17:15:59.497Z,15.52
2022-09-25T17:18:27.879Z,15.48
2022-09-25T17:21:12.655Z,15.45
2022-09-25T17:23:53.557Z,15.44
2022-09-25T17:26:25.151Z,15.42
2022-09-25T17:28:52.827Z,15.41
2022-09-25T17:31:22.561Z,15.39
2022-09-25T17:33:53.500Z,15.35
2022-09-25T17:36:21.584Z,15.31
2022-09-25T17:38:50.802Z,15.30
2022-09-25T17:41:22.056Z,15.29
2022-09-25T17:43:53.461Z,15.28
2022-09-25T17:46:21.341Z,15.27
2022-09-25T17:48:54.165Z,15.25
2022-09-25T17:51:24.543Z,15.24
2022-09-25T17:53:54.604Z,15.22
2022-09-25T17:56:23.204Z,15.21
2022-09-25T17:58:58.647Z,15.20
2022-09-25T18:01:42.109Z,15.14
2022-09-25T18:04:19.852Z,15.10
2022-09-25T18:06:47.717Z,15.10
2022-09-25T18:09:17.426Z,15.09
2022-09-25T18:11:45.812Z,15.09
2022-09-25T18:14:15.571Z,15.10
2022-09-25T18:16:45.071Z,15.10
2022-09-25T18:19:34.130Z,15.11
2022-09-25T18:22:21.625Z,15.11
2022-09-25T18:24:54.328Z,15.12
2022-09-25T18:27:22.130Z,15.13
2022-09-25T18:29:50.039Z,15.10
2022-09-25T18:32:17.845Z,15.07
2022-09-25T18:34:45.547Z,15.06
2022-09-25T18:37:13.396Z,15.05
2022-09-25T18:39:41.159Z,15.03
2022-09-25T18:42:10.222Z,15.02
2022-09-25T18:44:42.538Z,15.02
2022-09-25T18:47:10.899Z,15.02
2022-09-25T18:49:38.690Z,15.03
2022-09-25T18:52:06.801Z,15.02
2022-09-25T18:54:34.503Z,15.02
2022-09-25T18:57:02.449Z,15.02
2022-09-25T18:59:31.498Z,15.02
2022-09-25T19:02:00.102Z,15.01
2022-09-25T19:04:28.721Z,14.98
2022-09-25T19:06:56.758Z,14.96
2022-09-25T19:09:27.454Z,14.96
2022-09-25T19:11:55.305Z,14.95
2022-09-25T19:14:24.035Z,14.95
2022-09-25T19:16:53.418Z,14.92
2022-09-25T19:19:21.181Z,14.90
2022-09-25T19:21:48.857Z,14.89
2022-09-25T19:24:18.377Z,14.87
2022-09-25T19:26:48.130Z,14.84
2022-09-25T19:29:15.872Z,14.83
2022-09-25T19:31:44.462Z,14.82
2022-09-25T19:34:14.195Z,14.82
2022-09-25T19:36:41.972Z,14.82
2022-09-25T19:39:09.966Z,14.83
2022-09-25T19:41:40.716Z,14.80
2022-09-25T19:44:13.425Z,14.79
2022-09-25T19:46:42.066Z,14.79
2022-09-25T19:49:10.236Z,14.77
2022-09-25T19:51:40.025Z,14.76
2022-09-25T19:54:09.269Z,14.73
2022-09-25T19:56:40.628Z,14.73
2022-09-25T19:59:09.093Z,14.73
2022-09-25T20:01:36.876Z,14.72
2022-09-25T20:04:08.444Z,14.72
2022-09-25T20:06:37.730Z,14.72
2022-09-25T20:09:08.085Z,14.72
2022-09-25T20:11:36.527Z,14.70
2022-09-25T20:14:06.577Z,14.70
2022-09-25T20:16:34.469Z,14.68
2022-09-25T20:19:04.314Z,14.68
2022-09-25T20:21:34.285Z,14.66
2022-09-25T20:24:03.901Z,14.65
2022-09-25T20:26:33.228Z,14.63
2022-09-25T20:29:03.252Z,14.61
2022-09-25T20:31:34.263Z,14.60
2022-09-25T20:34:02.432Z,14.57
2022-09-25T20:36:30.119Z,14.56
2022-09-25T20:38:58.613Z,14.54
2022-09-25T20:41:27.059Z,14.53
2022-09-25T20:43:58.046Z,14.50
2022-09-25T20:46:27.411Z,14.48
2022-09-25T20:48:57.982Z,14.48
2022-09-25T20:51:27.451Z,14.48
2022-09-25T20:53:57.767Z,14.45
2022-09-25T20:56:26.116Z,14.43
2022-09-25T20:58:56.457Z,14.44
2022-09-25T21:01:25.533Z,14.43
2022-09-25T21:03:53.861Z,14.42
2022-09-25T21:06:26.150Z,14.40
2022-09-25T21:08:54.831Z,14.38
2022-09-25T21:11:23.254Z,14.38
2022-09-25T21:13:52.310Z,14.36
2022-09-25T21:16:22.830Z,14.34
2022-09-25T21:18:53.221Z,14.32
2022-09-25T21:21:20.964Z,14.31
2022-09-25T21:23:50.270Z,14.29
2022-09-25T21:26:19.090Z,14.28
2022-09-25T21:28:48.194Z,14.27
2022-09-25T21:31:18.179Z,14.29
2022-09-25T21:33:47.405Z,14.27
2022-09-25T21:36:16.888Z,14.25
2022-09-25T21:38:44.736Z,14.23
2022-09-25T21:41:13.552Z,14.22
2022-09-25T21:43:41.819Z,14.20
2022-09-25T21:46:12.876Z,14.19
2022-09-25T21:48:44.780Z,14.18
2022-09-25T21:51:14.579Z,14.17
2022-09-25T21:53:42.686Z,14.15
2022-09-25T21:56:11.727Z,14.15
2022-09-25T21:58:39.640Z,14.15
2022-09-25T22:01:08.958Z,14.13
2022-09-25T22:03:38.756Z,14.13
2022-09-25T22:06:08.880Z,14.12
2022-09-25T22:08:40.570Z,14.13
2022-09-25T22:11:10.292Z,14.12
2022-09-25T22:13:40.557Z,14.10
2022-09-25T22:16:10.811Z,14.08
2022-09-25T22:18:43.300Z,14.08
2022-09-25T22:21:11.534Z,14.05
2022-09-25T22:23:40.549Z,14.05
2022-09-25T22:26:08.814Z,14.04
2022-09-25T22:28:37.213Z,14.04
2022-09-25T22:31:06.903Z,14.06
2022-09-25T22:33:34.813Z,14.04
2022-09-25T22:36:04.008Z,14.04
2022-09-25T22:38:32.221Z,14.02
2022-09-25T22:41:05.738Z,14.04
2022-09-25T22:43:33.489Z,14.03
2022-09-25T22:46:01.426Z,14.02
2022-09-25T22:48:29.174Z,14.02
2022-09-25T22:50:58.394Z,14.04
2022-09-25T22:53:26.601Z,14.04
2022-09-25T22:55:54.093Z,14.05
2022-09-25T22:58:23.258Z,14.06
2022-09-25T23:00:53.040Z,14.05
2022-09-25T23:03:24.407Z,14.02
2022-09-25T23:05:52.384Z,14.02
2022-09-25T23:08:20.023Z,14.01
2022-09-25T23:11:06.236Z,14.01
2022-09-25T23:13:37.018Z,13.98
2022-09-25T23:16:06.840Z,13.97
2022-09-25T23:18:34.782Z,13.95
2022-09-25T23:21:02.404Z,13.94
2022-09-25T23:23:30.066Z,13.94
2022-09-25T23:26:01.966Z,13.91
2022-09-25T23:28:29.439Z,13.89
2022-09-25T23:31:05.589Z,13.87
2022-09-25T23:33:34.260Z,13.86
2022-09-25T23:36:03.979Z,13.86
2022-09-25T23:38:31.587Z,13.83
2022-09-25T23:40:59.160Z,13.82
2022-09-25T23:43:26.762Z,13.79
2022-09-25T23:45:54.476Z,13.78
2022-09-25T23:48:23.327Z,13.76
2022-09-25T23:50:52.565Z,13.75
2022-09-25T23:53:20.782Z,13.73
2022-09-25T23:55:48.383Z,13.71
2022-09-25T23:58:16.035Z,13.71
